createdAt,value
2018-08-13T00:01:14.182Z,59.50
2018-08-13T00:03:43.526Z,59.40
2018-08-13T00:06:12.809Z,59.40
2018-08-13T00:08:45.003Z,59.60
2018-08-13T00:11:14.398Z,59.40
2018-08-13T00:13:43.720Z,59.40
2018-08-13T00:16:13.062Z,59.60
2018-08-13T00:18:42.381Z,59.90
2018-08-13T00:21:11.699Z,59.60
2018-08-13T00:23:40.981Z,59.50
2018-08-13T00:26:10.482Z,59.40
2018-08-13T00:28:39.784Z,59.50
2018-08-13T00:31:09.091Z,59.40
2018-08-13T00:33:38.414Z,59.40
2018-08-13T00:36:07.742Z,59.50
2018-08-13T00:38:37.038Z,59.20
2018-08-13T00:41:06.514Z,59.20
2018-08-13T00:43:35.837Z,59.20
2018-08-13T00:46:05.246Z,59.10
2018-08-13T00:48:34.578Z,59.10
2018-08-13T00:51:03.862Z,59.20
2018-08-13T00:53:33.680Z,59.20
2018-08-13T00:56:03.694Z,59.20
2018-08-13T00:58:33.879Z,59.30
2018-08-13T01:01:03.714Z,59.20
2018-08-13T01:03:33.752Z,59.50
2018-08-13T01:06:03.775Z,59.30
2018-08-13T01:08:33.742Z,59.90
2018-08-13T01:11:03.789Z,59.20
2018-08-13T01:13:33.703Z,59.20
2018-08-13T01:16:03.813Z,59.20
2018-08-13T01:18:33.821Z,59.30
2018-08-13T01:21:03.745Z,59.20
2018-08-13T01:23:33.825Z,59.40
2018-08-13T01:26:03.799Z,59.50
2018-08-13T01:28:33.896Z,59.40
2018-08-13T01:31:03.798Z,59.30
2018-08-13T01:33:33.801Z,59.20
2018-08-13T01:36:03.837Z,59.50
2018-08-13T01:38:33.815Z,59.80
2018-08-13T01:41:03.819Z,59.60
2018-08-13T01:43:33.798Z,59.40
2018-08-13T01:46:03.813Z,59.40
2018-08-13T01:48:33.841Z,59.40
2018-08-13T01:51:03.936Z,59.90
2018-08-13T01:53:33.848Z,59.40
2018-08-13T01:56:03.838Z,59.60
2018-08-13T01:58:33.828Z,59.60
2018-08-13T02:01:03.850Z,59.60
2018-08-13T02:03:33.892Z,59.60
2018-08-13T02:06:03.841Z,59.90
2018-08-13T02:08:33.842Z,60.60
2018-08-13T02:11:03.916Z,60.00
2018-08-13T02:13:33.858Z,60.00
2018-08-13T02:16:03.814Z,60.00
2018-08-13T02:18:33.950Z,60.00
2018-08-13T02:21:03.837Z,60.10
2018-08-13T02:23:33.934Z,60.00
2018-08-13T02:26:03.933Z,60.50
2018-08-13T02:28:33.882Z,61.00
2018-08-13T02:31:03.922Z,61.60
2018-08-13T02:33:33.865Z,62.20
2018-08-13T02:36:03.904Z,61.90
2018-08-13T02:38:33.871Z,61.90
2018-08-13T02:41:03.971Z,62.20
2018-08-13T02:43:34.022Z,62.80
2018-08-13T02:46:04.043Z,63.20
2018-08-13T02:48:33.948Z,63.30
2018-08-13T02:51:03.942Z,63.80
2018-08-13T02:53:34.018Z,64.70
2018-08-13T02:56:04.057Z,66.00
2018-08-13T02:58:34.133Z,66.10
2018-08-13T03:01:04.063Z,67.20
2018-08-13T03:03:34.034Z,68.10
2018-08-13T03:06:04.031Z,68.70
2018-08-13T03:08:34.080Z,70.00
2018-08-13T03:11:03.998Z,68.90
2018-08-13T03:13:34.179Z,69.00
2018-08-13T03:16:04.040Z,68.70
2018-08-13T03:18:34.189Z,68.60
2018-08-13T03:21:04.156Z,68.30
2018-08-13T03:23:34.165Z,69.10
2018-08-13T03:26:04.055Z,67.90
2018-08-13T03:28:34.038Z,68.30
2018-08-13T03:31:04.080Z,68.50
2018-08-13T03:33:34.202Z,69.00
2018-08-13T03:36:04.017Z,69.20
2018-08-13T03:38:34.134Z,69.10
2018-08-13T03:41:04.165Z,69.30
2018-08-13T03:43:34.125Z,68.70
2018-08-13T03:46:04.105Z,68.70
2018-08-13T03:48:34.081Z,68.30
2018-08-13T03:51:04.139Z,68.80
2018-08-13T03:53:34.096Z,68.70
2018-08-13T03:56:04.263Z,69.10
2018-08-13T03:58:34.079Z,69.30
2018-08-13T04:01:04.551Z,69.20
2018-08-13T04:03:34.138Z,69.30
2018-08-13T04:06:04.174Z,69.10
2018-08-13T04:08:34.223Z,69.00
2018-08-13T04:11:04.240Z,69.00
2018-08-13T04:13:34.126Z,69.10
2018-08-13T04:16:04.126Z,69.00
2018-08-13T04:18:34.179Z,68.80
2018-08-13T04:21:04.169Z,68.60
2018-08-13T04:23:34.184Z,68.70
2018-08-13T04:26:04.117Z,68.90
2018-08-13T04:28:34.113Z,68.70
2018-08-13T04:31:04.155Z,69.60
2018-08-13T04:33:34.176Z,68.40
2018-08-13T04:36:04.236Z,68.30
2018-08-13T04:38:34.285Z,68.60
2018-08-13T04:41:04.151Z,68.80
2018-08-13T04:43:34.291Z,68.90
2018-08-13T04:46:04.224Z,69.60
2018-08-13T04:48:34.200Z,69.00
2018-08-13T04:51:04.270Z,69.60
2018-08-13T04:53:34.202Z,69.90
2018-08-13T04:56:04.265Z,69.40
2018-08-13T04:58:34.322Z,69.80
2018-08-13T05:01:04.245Z,71.00
2018-08-13T05:03:34.230Z,70.30
2018-08-13T05:06:04.269Z,70.30
2018-08-13T05:08:34.323Z,70.50
2018-08-13T05:11:04.270Z,70.60
2018-08-13T05:13:34.411Z,70.90
2018-08-13T05:16:04.348Z,71.80
2018-08-13T05:18:34.251Z,71.60
2018-08-13T05:21:04.413Z,71.40
2018-08-13T05:23:34.287Z,71.10
2018-08-13T05:26:04.338Z,71.20
2018-08-13T05:28:34.444Z,71.60
2018-08-13T05:31:04.347Z,71.50
2018-08-13T05:33:34.277Z,71.70
2018-08-13T05:36:04.349Z,71.90
2018-08-13T05:38:34.311Z,71.70
2018-08-13T05:41:04.456Z,71.40
2018-08-13T05:43:34.333Z,72.40
2018-08-13T05:46:04.414Z,71.50
2018-08-13T05:48:34.390Z,72.10
2018-08-13T05:51:04.536Z,71.50
2018-08-13T05:53:34.321Z,71.60
2018-08-13T05:56:04.364Z,71.70
2018-08-13T05:58:34.471Z,71.50
2018-08-13T06:01:04.426Z,71.60
2018-08-13T06:03:34.454Z,71.00
2018-08-13T06:06:04.557Z,70.50
2018-08-13T06:08:34.457Z,70.70
2018-08-13T06:11:04.486Z,69.40
2018-08-13T06:13:34.569Z,70.30
2018-08-13T06:16:04.702Z,69.50
2018-08-13T06:18:34.630Z,69.70
2018-08-13T06:21:04.615Z,66.40
2018-08-13T06:23:34.495Z,67.70
2018-08-13T06:26:04.727Z,66.70
2018-08-13T06:28:34.566Z,62.80
2018-08-13T06:31:04.512Z,62.10
2018-08-13T06:33:34.533Z,59.00
2018-08-13T06:36:04.587Z,59.00
2018-08-13T06:38:34.540Z,59.30
2018-08-13T06:41:04.583Z,57.20
2018-08-13T06:43:34.621Z,58.30
2018-08-13T06:46:04.872Z,58.30
2018-08-13T06:48:34.641Z,59.40
2018-08-13T06:51:04.686Z,59.40
2018-08-13T06:53:35.793Z,58.40
2018-08-13T06:56:05.095Z,58.90
2018-08-13T06:58:37.670Z,59.20
2018-08-13T07:01:07.073Z,58.90
2018-08-13T07:03:36.428Z,59.10
2018-08-13T07:06:05.742Z,58.00
2018-08-13T07:08:35.085Z,57.50
2018-08-13T07:11:04.750Z,58.00
2018-08-13T07:13:34.754Z,58.10
2018-08-13T07:16:04.885Z,57.60
2018-08-13T07:18:34.713Z,58.20
2018-08-13T07:21:04.777Z,58.50
2018-08-13T07:23:34.710Z,58.20
2018-08-13T07:26:04.860Z,57.90
2018-08-13T07:28:34.774Z,56.60
2018-08-13T07:31:04.745Z,56.60
2018-08-13T07:33:34.736Z,55.80
2018-08-13T07:36:04.749Z,54.90
2018-08-13T07:38:34.737Z,55.50
2018-08-13T07:41:04.718Z,54.50
2018-08-13T07:43:34.745Z,55.40
2018-08-13T07:46:04.698Z,53.80
2018-08-13T07:48:34.773Z,54.10
2018-08-13T07:51:04.676Z,53.80
2018-08-13T07:53:34.761Z,51.60
2018-08-13T07:56:04.803Z,50.20
2018-08-13T07:58:34.691Z,49.90
2018-08-13T08:01:04.870Z,49.60
2018-08-13T08:03:34.803Z,48.20
2018-08-13T08:06:04.789Z,47.90
2018-08-13T08:08:34.786Z,48.80
2018-08-13T08:11:04.846Z,49.20
2018-08-13T08:13:34.786Z,47.70
2018-08-13T08:16:04.896Z,46.90
2018-08-13T08:18:34.852Z,46.80
2018-08-13T08:21:05.986Z,44.70
2018-08-13T08:23:35.290Z,42.00
2018-08-13T08:26:04.885Z,42.00
2018-08-13T08:28:34.798Z,42.60
2018-08-13T08:31:04.814Z,44.50
2018-08-13T08:33:34.785Z,44.10
2018-08-13T08:36:04.846Z,43.50
2018-08-13T08:38:34.827Z,46.70
2018-08-13T08:41:04.822Z,47.60
2018-08-13T08:43:34.868Z,49.10
2018-08-13T08:46:05.084Z,49.20
2018-08-13T08:48:34.938Z,49.60
2018-08-13T08:51:04.858Z,49.50
2018-08-13T08:53:34.926Z,49.80
2018-08-13T08:56:04.955Z,50.00
2018-08-13T08:58:34.933Z,50.00
2018-08-13T09:01:04.907Z,49.70
2018-08-13T09:03:34.997Z,50.10
2018-08-13T09:06:04.909Z,50.00
2018-08-13T09:08:34.929Z,49.40
2018-08-13T09:11:05.074Z,47.10
2018-08-13T09:13:38.384Z,48.80
2018-08-13T09:16:07.731Z,48.10
2018-08-13T09:18:54.086Z,47.40
2018-08-13T09:21:32.851Z,45.40
2018-08-13T09:24:19.184Z,44.40
2018-08-13T09:27:05.514Z,42.90
2018-08-13T09:29:51.923Z,42.30
2018-08-13T09:32:38.265Z,43.10
2018-08-13T09:35:22.801Z,43.60
2018-08-13T09:37:53.226Z,45.20
2018-08-13T09:40:22.638Z,46.00
2018-08-13T09:42:52.077Z,46.00
2018-08-13T09:45:21.395Z,45.80
2018-08-13T09:47:50.846Z,44.90
2018-08-13T09:50:20.773Z,43.30
2018-08-13T09:52:50.732Z,45.40
2018-08-13T09:55:20.686Z,45.30
2018-08-13T09:57:50.808Z,45.60
2018-08-13T10:00:26.431Z,45.50
2018-08-13T10:02:55.729Z,48.20
2018-08-13T10:05:25.201Z,47.90
2018-08-13T10:07:54.658Z,47.50
2018-08-13T10:10:24.073Z,47.10
2018-08-13T10:12:53.464Z,47.00
2018-08-13T10:15:22.761Z,46.70
2018-08-13T10:17:52.122Z,47.20
2018-08-13T10:20:22.223Z,46.50
2018-08-13T10:22:51.594Z,46.20
2018-08-13T10:25:20.930Z,45.90
2018-08-13T10:27:50.241Z,45.40
2018-08-13T10:30:19.666Z,45.90
2018-08-13T10:32:49.026Z,46.40
2018-08-13T10:35:18.405Z,46.40
2018-08-13T10:37:47.811Z,46.10
2018-08-13T10:40:18.990Z,46.40
2018-08-13T10:42:48.769Z,46.40
2018-08-13T10:45:18.318Z,46.80
2018-08-13T10:47:47.739Z,47.10
2018-08-13T10:50:17.138Z,47.20
2018-08-13T10:52:46.525Z,47.00
2018-08-13T10:55:16.375Z,47.30
2018-08-13T10:57:45.850Z,47.60
2018-08-13T11:00:17.193Z,47.40
2018-08-13T11:02:46.959Z,47.30
2018-08-13T11:05:16.743Z,47.10
2018-08-13T11:07:46.144Z,47.70
2018-08-13T11:10:16.315Z,47.70
2018-08-13T11:12:46.587Z,47.00
2018-08-13T11:15:19.041Z,47.10
2018-08-13T11:17:48.462Z,44.50
2018-08-13T11:20:18.120Z,44.60
2018-08-13T11:22:47.597Z,43.60
2018-08-13T11:25:17.223Z,44.50
2018-08-13T11:27:46.627Z,43.80
2018-08-13T11:30:17.226Z,43.30
2018-08-13T11:32:46.693Z,43.40
2018-08-13T11:35:16.575Z,43.90
2018-08-13T11:37:45.936Z,45.00
2018-08-13T11:40:16.640Z,45.30
2018-08-13T11:42:46.077Z,46.20
2018-08-13T11:45:15.468Z,46.00
2018-08-13T11:47:44.941Z,46.10
2018-08-13T11:50:21.826Z,46.40
2018-08-13T11:52:51.957Z,46.00
2018-08-13T11:55:21.454Z,46.10
2018-08-13T11:57:51.410Z,46.80
2018-08-13T12:00:20.810Z,46.20
2018-08-13T12:02:50.151Z,45.90
2018-08-13T12:05:19.598Z,46.70
2018-08-13T12:07:49.000Z,46.70
2018-08-13T12:10:18.310Z,46.60
2018-08-13T12:12:47.668Z,47.00
2018-08-13T12:15:17.032Z,46.90
2018-08-13T12:17:46.444Z,47.40
2018-08-13T12:20:18.268Z,47.40
2018-08-13T12:22:47.934Z,47.50
2018-08-13T12:25:23.737Z,48.00
2018-08-13T12:27:53.427Z,47.90
2018-08-13T12:30:22.861Z,48.00
2018-08-13T12:32:53.107Z,48.40
2018-08-13T12:35:22.458Z,48.50
2018-08-13T12:37:52.248Z,47.80
2018-08-13T12:40:21.810Z,48.60
2018-08-13T12:42:51.250Z,48.70
2018-08-13T12:45:20.674Z,48.40
2018-08-13T12:47:50.092Z,48.30
2018-08-13T12:50:20.821Z,48.40
2018-08-13T12:52:51.453Z,48.70
2018-08-13T12:55:20.847Z,48.70
2018-08-13T12:57:50.291Z,49.30
2018-08-13T13:00:19.875Z,49.50
2018-08-13T13:02:49.321Z,49.60
2018-08-13T13:05:19.145Z,49.80
2018-08-13T13:07:48.604Z,49.80
2018-08-13T13:10:18.655Z,50.10
2018-08-13T13:12:48.050Z,49.90
2018-08-13T13:15:19.602Z,50.10
2018-08-13T13:20:29.730Z,51.00
2018-08-13T13:22:59.089Z,52.90
2018-08-13T13:25:28.565Z,53.20
2018-08-13T13:27:58.001Z,53.40
2018-08-13T13:30:27.395Z,53.40
2018-08-13T13:32:56.706Z,53.70
2018-08-13T13:35:26.039Z,53.50
2018-08-13T13:37:55.403Z,53.70
2018-08-13T13:40:24.889Z,53.10
2018-08-13T13:42:54.158Z,52.80
2018-08-13T13:45:23.450Z,53.40
2018-08-13T13:47:52.782Z,52.40
2018-08-13T13:50:22.167Z,52.10
2018-08-13T13:52:51.565Z,51.90
2018-08-13T13:55:20.933Z,51.10
2018-08-13T13:57:50.230Z,51.70
2018-08-13T14:00:20.990Z,51.30
2018-08-13T14:02:51.786Z,51.30
2018-08-13T14:05:21.558Z,50.80
2018-08-13T14:07:50.910Z,50.60
2018-08-13T14:10:22.718Z,50.90
2018-08-13T14:12:52.106Z,50.30
2018-08-13T14:15:22.667Z,50.50
2018-08-13T14:17:52.495Z,50.40
2018-08-13T14:20:22.082Z,50.00
2018-08-13T14:22:51.449Z,49.60
2018-08-13T14:25:20.841Z,50.00
2018-08-13T14:27:50.244Z,49.30
2018-08-13T14:30:23.282Z,49.00
2018-08-13T14:32:52.686Z,49.30
2018-08-13T14:35:23.265Z,49.50
2018-08-13T14:37:52.717Z,49.10
2018-08-13T14:40:22.174Z,49.60
2018-08-13T14:42:51.590Z,49.00
2018-08-13T14:45:21.074Z,49.30
2018-08-13T14:47:51.544Z,48.80
2018-08-13T14:50:20.955Z,48.70
2018-08-13T14:52:50.544Z,49.30
2018-08-13T14:57:47.793Z,49.50
2018-08-13T15:00:27.195Z,50.90
2018-08-13T15:02:56.573Z,51.20
2018-08-13T15:05:25.993Z,51.10
2018-08-13T15:07:55.353Z,51.40
2018-08-13T15:10:25.903Z,51.60
2018-08-13T15:12:55.587Z,51.50
2018-08-13T15:15:25.039Z,51.40
2018-08-13T15:17:54.522Z,51.70
2018-08-13T15:20:28.398Z,52.10
2018-08-13T15:22:57.803Z,53.80
2018-08-13T15:25:27.597Z,55.00
2018-08-13T15:27:57.013Z,56.10
2018-08-13T15:30:27.088Z,56.90
2018-08-13T15:32:56.479Z,56.90
2018-08-13T15:35:25.866Z,56.90
2018-08-13T15:37:55.176Z,57.90
2018-08-13T15:40:24.541Z,58.10
2018-08-13T15:42:53.934Z,58.00
2018-08-13T15:45:24.046Z,57.80
2018-08-13T15:47:53.447Z,58.00
2018-08-13T15:50:23.474Z,58.30
2018-08-13T15:52:53.181Z,57.50
2018-08-13T15:55:22.526Z,56.60
2018-08-13T15:57:51.940Z,56.40
2018-08-13T16:00:24.366Z,56.10
2018-08-13T16:02:53.973Z,56.00
2018-08-13T16:05:23.516Z,56.10
2018-08-13T16:07:53.323Z,56.20
2018-08-13T16:10:23.904Z,56.40
2018-08-13T16:12:55.203Z,56.70
2018-08-13T16:15:25.081Z,56.60
2018-08-13T16:17:54.422Z,56.40
2018-08-13T16:20:23.776Z,57.20
2018-08-13T16:22:53.124Z,56.50
2018-08-13T16:25:22.491Z,56.40
2018-08-13T16:27:51.832Z,56.50
2018-08-13T16:30:24.505Z,56.50
2018-08-13T16:32:53.908Z,56.10
2018-08-13T16:35:24.305Z,56.20
2018-08-13T16:37:53.680Z,57.30
2018-08-13T16:40:23.053Z,56.40
2018-08-13T16:42:52.942Z,56.20
2018-08-13T16:45:23.104Z,56.30
2018-08-13T16:47:52.694Z,56.40
2018-08-13T16:50:26.488Z,56.60
2018-08-13T16:52:56.098Z,56.90
2018-08-13T16:55:26.233Z,57.00
2018-08-13T16:57:55.613Z,57.30
2018-08-13T17:00:27.354Z,57.80
2018-08-13T17:02:57.072Z,58.40
2018-08-13T17:05:26.785Z,59.10
2018-08-13T17:07:56.172Z,59.90
2018-08-13T17:10:27.515Z,61.70
2018-08-13T17:12:57.782Z,65.80
2018-08-13T17:15:29.236Z,70.50
2018-08-13T17:18:02.065Z,72.60
2018-08-13T17:20:39.708Z,75.00
2018-08-13T17:23:09.080Z,75.60
2018-08-13T17:25:38.522Z,76.20
2018-08-13T17:28:07.904Z,76.00
2018-08-13T17:30:37.374Z,76.10
2018-08-13T17:33:08.164Z,76.80
2018-08-13T17:35:37.622Z,77.20
2018-08-13T17:38:12.035Z,77.40
2018-08-13T17:40:41.661Z,75.90
2018-08-13T17:43:11.850Z,74.90
2018-08-13T17:45:41.087Z,75.10
2018-08-13T17:48:11.063Z,74.80
2018-08-13T17:50:40.544Z,75.00
2018-08-13T17:53:11.062Z,75.40
2018-08-13T17:55:40.407Z,75.50
2018-08-13T17:58:09.812Z,75.50
2018-08-13T18:00:39.255Z,75.70
2018-08-13T18:03:08.604Z,75.70
2018-08-13T18:05:37.986Z,75.70
2018-08-13T18:08:08.065Z,76.20
2018-08-13T18:10:37.468Z,76.30
2018-08-13T18:13:08.870Z,75.70
2018-08-13T18:15:38.216Z,77.00
2018-08-13T18:18:07.633Z,76.80
2018-08-13T18:20:37.110Z,77.20
2018-08-13T18:23:06.469Z,76.70
2018-08-13T18:25:36.068Z,77.60
2018-08-13T18:28:06.016Z,77.40
2018-08-13T18:30:36.148Z,77.80
2018-08-13T18:33:06.142Z,77.90
2018-08-13T18:35:36.145Z,79.00
2018-08-13T18:38:06.206Z,78.20
2018-08-13T18:40:36.058Z,78.60
2018-08-13T18:43:06.274Z,78.70
2018-08-13T18:45:36.132Z,79.20
2018-08-13T18:48:06.402Z,79.40
2018-08-13T18:50:36.170Z,79.70
2018-08-13T18:53:06.163Z,79.90
2018-08-13T18:55:36.192Z,80.30
2018-08-13T18:58:06.236Z,81.10
2018-08-13T19:00:36.121Z,81.20
2018-08-13T19:03:06.313Z,80.80
2018-08-13T19:05:36.369Z,81.20
2018-08-13T19:08:09.299Z,80.70
2018-08-13T19:10:38.665Z,81.00
2018-08-13T19:13:08.025Z,81.20
2018-08-13T19:15:37.364Z,81.10
2018-08-13T19:18:06.954Z,81.10
2018-08-13T19:20:36.429Z,81.60
2018-08-13T19:23:06.319Z,81.60
2018-08-13T19:25:36.253Z,81.70
2018-08-13T19:28:06.638Z,81.60
2018-08-13T19:30:36.275Z,81.90
2018-08-13T19:33:06.297Z,81.70
2018-08-13T19:35:36.298Z,81.30
2018-08-13T19:38:06.327Z,82.20
2018-08-13T19:40:36.261Z,82.60
2018-08-13T19:43:06.313Z,82.70
2018-08-13T19:45:36.432Z,82.50
2018-08-13T19:48:06.323Z,83.10
2018-08-13T19:50:36.598Z,83.40
2018-08-13T19:53:06.317Z,82.80
2018-08-13T19:55:36.395Z,82.90
2018-08-13T19:58:06.363Z,83.30
2018-08-13T20:00:36.351Z,82.90
2018-08-13T20:03:08.266Z,83.20
2018-08-13T20:05:37.651Z,83.00
2018-08-13T20:08:07.020Z,83.60
2018-08-13T20:10:36.376Z,83.70
2018-08-13T20:13:06.832Z,84.20
2018-08-13T20:15:36.362Z,83.80
2018-08-13T20:18:06.758Z,83.40
2018-08-13T20:20:36.348Z,83.50
2018-08-13T20:23:06.422Z,83.90
2018-08-13T20:25:36.360Z,83.40
2018-08-13T20:28:06.466Z,83.60
2018-08-13T20:30:36.435Z,84.00
2018-08-13T20:33:06.457Z,83.80
2018-08-13T20:35:36.406Z,84.10
2018-08-13T20:38:06.882Z,84.40
2018-08-13T20:40:36.393Z,84.60
2018-08-13T20:43:06.728Z,84.40
2018-08-13T20:45:36.504Z,84.60
2018-08-13T20:48:06.583Z,84.40
2018-08-13T20:50:36.383Z,84.70
2018-08-13T20:53:06.500Z,85.20
2018-08-13T20:55:36.522Z,84.80
2018-08-13T20:58:06.509Z,85.50
2018-08-13T21:00:36.433Z,85.40
2018-08-13T21:03:06.713Z,85.30
2018-08-13T21:05:36.519Z,85.90
2018-08-13T21:08:06.491Z,85.70
2018-08-13T21:10:36.523Z,85.50
2018-08-13T21:13:06.784Z,85.70
2018-08-13T21:15:36.576Z,86.10
2018-08-13T21:18:06.578Z,86.40
2018-08-13T21:20:36.614Z,86.00
2018-08-13T21:23:06.565Z,86.40
2018-08-13T21:25:36.664Z,86.40
2018-08-13T21:28:06.527Z,86.80
2018-08-13T21:30:36.480Z,87.00
2018-08-13T21:33:06.575Z,86.90
2018-08-13T21:35:36.591Z,87.00
2018-08-13T21:38:06.630Z,87.20
2018-08-13T21:40:36.512Z,87.10
2018-08-13T21:43:06.540Z,87.50
2018-08-13T21:45:36.576Z,87.10
2018-08-13T21:48:06.913Z,87.40
2018-08-13T21:50:36.616Z,87.50
2018-08-13T21:53:06.879Z,87.30
2018-08-13T21:55:36.670Z,88.00
2018-08-13T21:58:06.834Z,88.50
2018-08-13T22:00:41.747Z,88.60
2018-08-13T22:03:11.438Z,88.40
2018-08-13T22:05:40.854Z,88.30
2018-08-13T22:08:10.200Z,88.90
2018-08-13T22:10:39.568Z,88.30
2018-08-13T22:13:08.954Z,88.10
2018-08-13T22:15:38.361Z,87.70
2018-08-13T22:18:08.607Z,88.50
2018-08-13T22:20:38.285Z,88.80
2018-08-13T22:23:08.613Z,88.70
2018-08-13T22:25:45.167Z,88.50
2018-08-13T22:28:17.666Z,88.60
2018-08-13T22:30:47.748Z,88.50
2018-08-13T22:33:17.161Z,88.80
2018-08-13T22:35:46.564Z,88.80
2018-08-13T22:38:15.894Z,88.50
2018-08-13T22:40:45.220Z,88.70
2018-08-13T22:43:14.572Z,89.10
2018-08-13T22:45:43.911Z,89.00
2018-08-13T22:48:13.303Z,89.10
2018-08-13T22:50:42.614Z,89.00
2018-08-13T22:53:11.943Z,88.80
2018-08-13T22:55:41.351Z,88.60
2018-08-13T22:58:10.735Z,88.60
2018-08-13T23:00:40.053Z,88.90
2018-08-13T23:03:09.433Z,89.00
2018-08-13T23:05:38.866Z,89.60
2018-08-13T23:08:08.535Z,90.00
2018-08-13T23:10:37.933Z,89.10
2018-08-13T23:13:15.306Z,89.10
2018-08-13T23:15:44.821Z,90.00
2018-08-13T23:18:14.219Z,89.80
2018-08-13T23:20:43.667Z,89.90
2018-08-13T23:23:13.035Z,90.00
2018-08-13T23:25:42.429Z,89.60
2018-08-13T23:28:12.393Z,90.00
2018-08-13T23:30:41.729Z,89.40
2018-08-13T23:33:11.090Z,89.20
2018-08-13T23:35:40.531Z,89.20
2018-08-13T23:38:09.887Z,89.30
2018-08-13T23:40:39.303Z,89.10
2018-08-13T23:43:08.699Z,89.50
2018-08-13T23:45:38.031Z,89.60
2018-08-13T23:48:07.478Z,89.50
2018-08-13T23:50:36.826Z,89.50
2018-08-13T23:53:06.889Z,89.70
2018-08-13T23:55:38.445Z,90.00
2018-08-13T23:58:12.459Z,89.90
